createdAt,value
2018-07-22T00:00:13.346Z,101121.31
2018-07-22T00:02:41.737Z,101122.65
2018-07-22T00:05:10.134Z,101127.91
2018-07-22T00:07:38.976Z,101128.77
2018-07-22T00:10:14.380Z,101124.42
2018-07-22T00:12:42.758Z,101117.39
2018-07-22T00:15:11.166Z,101116.52
2018-07-22T00:17:39.570Z,101114.29
2018-07-22T00:20:07.955Z,101115.14
2018-07-22T00:22:36.352Z,101112.96
2018-07-22T00:25:05.037Z,101113.42
2018-07-22T00:27:33.438Z,101118.23
2018-07-22T00:30:01.810Z,101129.61
2018-07-22T00:32:30.210Z,101121.73
2018-07-22T00:34:58.589Z,101127.50
2018-07-22T00:37:26.990Z,101116.98
2018-07-22T00:39:55.369Z,101125.79
2018-07-22T00:42:23.766Z,101124.94
2018-07-22T00:44:52.138Z,101119.69
2018-07-22T00:47:20.538Z,101119.74
2018-07-22T00:49:49.102Z,101119.33
2018-07-22T00:52:17.677Z,101114.08
2018-07-22T00:54:46.050Z,101114.59
2018-07-22T00:57:14.445Z,101122.08
2018-07-22T00:59:42.820Z,101117.34
2018-07-22T01:02:11.210Z,101113.91
2018-07-22T01:04:39.588Z,101113.05
2018-07-22T01:07:07.990Z,101110.48
2018-07-22T01:09:36.357Z,101114.02
2018-07-22T01:12:04.838Z,101110.09
2018-07-22T01:14:33.214Z,101103.92
2018-07-22T01:17:01.670Z,101104.83
2018-07-22T01:19:30.059Z,101111.39
2018-07-22T01:21:58.463Z,101105.22
2018-07-22T01:24:26.838Z,101109.98
2018-07-22T01:26:56.242Z,101103.40
2018-07-22T01:29:24.626Z,101106.42
2018-07-22T01:31:53.034Z,101111.22
2018-07-22T01:34:21.410Z,101109.45
2018-07-22T01:36:49.810Z,101101.11
2018-07-22T01:39:18.185Z,101102.03
2018-07-22T01:41:46.589Z,101108.14
2018-07-22T01:44:14.966Z,101116.94
2018-07-22T01:46:43.371Z,101119.98
2018-07-22T01:49:11.753Z,101115.18
2018-07-22T01:51:40.198Z,101115.22
2018-07-22T01:54:08.582Z,101118.27
2018-07-22T01:56:36.985Z,101120.48
2018-07-22T01:59:05.361Z,101121.36
2018-07-22T02:01:33.795Z,101120.95
2018-07-22T02:04:02.187Z,101121.40
2018-07-22T02:06:30.599Z,101121.40
2018-07-22T02:08:58.995Z,101117.91
2018-07-22T02:11:27.587Z,101119.23
2018-07-22T02:13:55.978Z,101114.84
2018-07-22T02:16:24.378Z,101113.57
2018-07-22T02:18:52.780Z,101115.34
2018-07-22T02:21:21.157Z,101117.52
2018-07-22T02:23:49.565Z,101123.64
2018-07-22T02:26:17.945Z,101124.96
2018-07-22T02:28:46.351Z,101121.06
2018-07-22T02:31:14.731Z,101116.72
2018-07-22T02:33:43.139Z,101114.14
2018-07-22T02:36:11.517Z,101108.47
2018-07-22T02:38:39.930Z,101113.34
2018-07-22T02:41:08.322Z,101109.00
2018-07-22T02:43:36.744Z,101102.53
2018-07-22T02:46:05.132Z,101102.59
2018-07-22T02:48:33.539Z,101110.52
2018-07-22T02:51:01.931Z,101109.23
2018-07-22T02:53:30.331Z,101105.75
2018-07-22T02:55:58.711Z,101108.02
2018-07-22T02:58:27.122Z,101101.00
2018-07-22T03:00:55.504Z,101108.06
2018-07-22T03:03:23.957Z,101105.94
2018-07-22T03:05:52.318Z,101109.03
2018-07-22T03:08:20.709Z,101112.15
2018-07-22T03:10:49.085Z,101114.78
2018-07-22T03:13:17.482Z,101127.95
2018-07-22T03:15:45.864Z,101125.78
2018-07-22T03:18:14.303Z,101123.16
2018-07-22T03:20:42.700Z,101126.20
2018-07-22T03:23:11.195Z,101129.73
2018-07-22T03:25:39.587Z,101131.50
2018-07-22T03:28:08.031Z,101135.89
2018-07-22T03:30:36.422Z,101134.16
2018-07-22T03:33:06.452Z,101136.79
2018-07-22T03:35:34.814Z,101129.32
2018-07-22T03:38:03.234Z,101129.77
2018-07-22T03:40:31.655Z,101133.71
2018-07-22T03:43:00.054Z,101131.95
2018-07-22T03:45:28.439Z,101136.75
2018-07-22T03:47:56.833Z,101138.92
2018-07-22T03:50:25.219Z,101139.34
2018-07-22T03:52:53.631Z,101138.47
2018-07-22T03:55:22.021Z,101137.56
2018-07-22T03:57:50.429Z,101139.70
2018-07-22T04:00:18.815Z,101136.65
2018-07-22T04:02:47.224Z,101141.41
2018-07-22T04:05:15.610Z,101133.03
2018-07-22T04:07:44.027Z,101138.23
2018-07-22T04:10:12.411Z,101134.66
2018-07-22T04:12:40.917Z,101135.94
2018-07-22T04:15:09.297Z,101135.84
2018-07-22T04:17:37.743Z,101140.09
2018-07-22T04:20:06.351Z,101140.89
2018-07-22T04:22:34.972Z,101141.19
2018-07-22T04:25:03.638Z,101144.57
2018-07-22T04:27:32.014Z,101138.37
2018-07-22T04:30:00.413Z,101142.27
2018-07-22T04:32:28.854Z,101139.14
2018-07-22T04:34:57.249Z,101132.55
2018-07-22T04:37:25.641Z,101133.00
2018-07-22T04:39:54.039Z,101126.48
2018-07-22T04:42:22.406Z,101122.59
2018-07-22T04:44:50.808Z,101127.01
2018-07-22T04:47:19.178Z,101135.76
2018-07-22T04:49:47.583Z,101135.70
2018-07-22T04:52:15.960Z,101136.95
2018-07-22T04:54:44.594Z,101130.66
2018-07-22T04:57:12.975Z,101141.92
2018-07-22T04:59:41.379Z,101132.13
2018-07-22T05:02:09.749Z,101135.05
2018-07-22T05:04:38.154Z,101143.66
2018-07-22T05:07:06.542Z,101140.38
2018-07-22T05:09:34.943Z,101139.61
2018-07-22T05:12:03.562Z,101142.34
2018-07-22T05:14:31.957Z,101143.31
2018-07-22T05:17:00.361Z,101143.11
2018-07-22T05:19:28.770Z,101141.54
2018-07-22T05:21:57.166Z,101142.59
2018-07-22T05:24:25.570Z,101141.39
2018-07-22T05:26:53.959Z,101147.66
2018-07-22T05:29:22.354Z,101143.02
2018-07-22T05:31:50.742Z,101144.56
2018-07-22T05:34:19.145Z,101146.55
2018-07-22T05:36:47.527Z,101141.48
2018-07-22T05:39:15.935Z,101136.00
2018-07-22T05:41:44.323Z,101137.90
2018-07-22T05:44:12.735Z,101142.09
2018-07-22T05:46:41.133Z,101141.84
2018-07-22T05:49:09.526Z,101142.99
2018-07-22T05:51:37.898Z,101143.22
2018-07-22T05:54:06.482Z,101141.78
2018-07-22T05:56:34.848Z,101140.34
2018-07-22T05:59:03.266Z,101146.37
2018-07-22T06:01:31.637Z,101152.52
2018-07-22T06:04:00.031Z,101159.09
2018-07-22T06:06:28.405Z,101159.09
2018-07-22T06:08:56.803Z,101164.33
2018-07-22T06:11:25.179Z,101165.52
2018-07-22T06:13:53.586Z,101170.20
2018-07-22T06:16:21.950Z,101174.91
2018-07-22T06:18:50.373Z,101166.42
2018-07-22T06:21:18.742Z,101168.45
2018-07-22T06:23:47.115Z,101167.38
2018-07-22T06:26:15.522Z,101166.33
2018-07-22T06:28:43.896Z,101165.24
2018-07-22T06:31:12.302Z,101165.41
2018-07-22T06:33:40.674Z,101163.27
2018-07-22T06:36:09.087Z,101162.34
2018-07-22T06:38:37.726Z,101158.25
2018-07-22T06:41:06.191Z,101152.93
2018-07-22T06:43:34.556Z,101150.35
2018-07-22T06:46:02.968Z,101144.84
2018-07-22T06:48:31.363Z,101148.56
2018-07-22T06:50:59.754Z,101156.43
2018-07-22T06:53:28.174Z,101163.91
2018-07-22T06:55:56.567Z,101163.45
2018-07-22T06:58:24.944Z,101164.30
2018-07-22T07:00:53.353Z,101162.40
2018-07-22T07:03:21.727Z,101160.27
2018-07-22T07:05:50.162Z,101161.84
2018-07-22T07:08:18.538Z,101157.12
2018-07-22T07:10:46.979Z,101153.70
2018-07-22T07:13:15.349Z,101159.20
2018-07-22T07:15:43.747Z,101153.11
2018-07-22T07:18:12.146Z,101154.12
2018-07-22T07:20:40.545Z,101163.16
2018-07-22T07:23:08.966Z,101162.64
2018-07-22T07:25:37.366Z,101166.00
2018-07-22T07:28:14.142Z,101168.53
2018-07-22T07:30:42.540Z,101167.12
2018-07-22T07:33:10.919Z,101176.41
2018-07-22T07:35:39.319Z,101164.55
2018-07-22T07:38:07.683Z,101171.57
2018-07-22T07:40:36.087Z,101175.08
2018-07-22T07:43:04.475Z,101170.20
2018-07-22T07:45:32.875Z,101167.08
2018-07-22T07:48:01.243Z,101174.57
2018-07-22T07:50:29.642Z,101174.92
2018-07-22T07:52:58.023Z,101173.47
2018-07-22T07:55:26.409Z,101168.94
2018-07-22T07:57:54.799Z,101171.47
2018-07-22T08:00:23.203Z,101169.51
2018-07-22T08:02:51.582Z,101164.89
2018-07-22T08:05:19.983Z,101173.54
2018-07-22T08:07:48.358Z,101171.53
2018-07-22T08:10:16.750Z,101176.55
2018-07-22T08:12:45.130Z,101174.27
2018-07-22T08:15:13.543Z,101178.96
2018-07-22T08:17:41.952Z,101181.39
2018-07-22T08:20:10.361Z,101185.30
2018-07-22T08:22:38.746Z,101187.79
2018-07-22T08:25:07.557Z,101188.61
2018-07-22T08:27:35.982Z,101181.39
2018-07-22T08:30:05.165Z,101185.44
2018-07-22T08:32:33.593Z,101179.34
2018-07-22T08:35:01.974Z,101182.34
2018-07-22T08:37:30.371Z,101186.58
2018-07-22T08:39:58.755Z,101176.88
2018-07-22T08:42:27.158Z,101175.54
2018-07-22T08:44:55.539Z,101171.53
2018-07-22T08:47:23.961Z,101171.66
2018-07-22T08:49:52.337Z,101177.20
2018-07-22T08:52:20.742Z,101175.81
2018-07-22T08:54:49.130Z,101173.47
2018-07-22T08:57:17.543Z,101172.38
2018-07-22T08:59:45.922Z,101168.72
2018-07-22T09:02:14.953Z,101169.61
2018-07-22T09:04:43.329Z,101168.33
2018-07-22T09:07:11.725Z,101172.33
2018-07-22T09:09:40.107Z,101168.33
2018-07-22T09:12:08.521Z,101173.59
2018-07-22T09:14:36.899Z,101173.83
2018-07-22T09:17:05.353Z,101174.58
2018-07-22T09:19:33.731Z,101174.81
2018-07-22T09:22:02.139Z,101182.44
2018-07-22T09:24:30.533Z,101178.86
2018-07-22T09:26:58.959Z,101180.58
2018-07-22T09:29:27.358Z,101182.33
2018-07-22T09:31:55.766Z,101183.03
2018-07-22T09:34:24.142Z,101180.00
2018-07-22T09:36:52.551Z,101174.79
2018-07-22T09:39:20.931Z,101176.17
2018-07-22T09:41:49.364Z,101173.87
2018-07-22T09:44:17.727Z,101172.80
2018-07-22T09:46:46.126Z,101179.94
2018-07-22T09:49:14.521Z,101172.52
2018-07-22T09:51:42.925Z,101175.11
2018-07-22T09:54:11.302Z,101182.66
2018-07-22T09:56:39.700Z,101180.88
2018-07-22T09:59:08.144Z,101174.38
2018-07-22T10:01:36.550Z,101176.58
2018-07-22T10:04:04.987Z,101173.10
2018-07-22T10:06:33.390Z,101173.52
2018-07-22T10:09:01.775Z,101174.14
2018-07-22T10:11:30.180Z,101170.69
2018-07-22T10:13:58.558Z,101166.69
2018-07-22T10:16:26.957Z,101162.13
2018-07-22T10:18:55.349Z,101169.27
2018-07-22T10:21:23.737Z,101168.81
2018-07-22T10:23:52.107Z,101172.67
2018-07-22T10:26:20.488Z,101173.52
2018-07-22T10:28:48.887Z,101169.14
2018-07-22T10:31:17.401Z,101175.09
2018-07-22T10:33:45.821Z,101167.86
2018-07-22T10:36:14.193Z,101173.29
2018-07-22T10:38:42.594Z,101172.50
2018-07-22T10:41:10.974Z,101173.99
2018-07-22T10:43:39.379Z,101179.80
2018-07-22T10:46:07.771Z,101176.19
2018-07-22T10:48:36.174Z,101175.23
2018-07-22T10:51:04.664Z,101173.77
2018-07-22T10:53:33.007Z,101171.80
2018-07-22T10:56:01.414Z,101174.23
2018-07-22T10:58:29.813Z,101170.79
2018-07-22T11:00:58.193Z,101168.79
2018-07-22T11:03:26.657Z,101174.06
2018-07-22T11:05:54.989Z,101169.70
2018-07-22T11:08:23.395Z,101166.59
2018-07-22T11:10:51.774Z,101167.19
2018-07-22T11:13:20.170Z,101167.80
2018-07-22T11:15:48.557Z,101162.97
2018-07-22T11:18:16.977Z,101160.84
2018-07-22T11:20:45.379Z,101161.92
2018-07-22T11:23:13.779Z,101154.59
2018-07-22T11:25:42.149Z,101163.31
2018-07-22T11:28:10.537Z,101158.17
2018-07-22T11:30:39.065Z,101159.66
2018-07-22T11:33:07.459Z,101154.41
2018-07-22T11:35:35.838Z,101157.53
2018-07-22T11:38:04.222Z,101160.06
2018-07-22T11:40:32.601Z,101156.58
2018-07-22T11:43:01.003Z,101154.53
2018-07-22T11:45:29.381Z,101151.46
2018-07-22T11:47:57.798Z,101156.39
2018-07-22T11:50:26.368Z,101149.92
2018-07-22T11:52:54.743Z,101145.38
2018-07-22T11:55:23.129Z,101138.02
2018-07-22T11:57:51.532Z,101144.14
2018-07-22T12:00:19.919Z,101135.14
2018-07-22T12:02:48.326Z,101142.41
2018-07-22T12:05:16.699Z,101133.52
2018-07-22T12:07:45.262Z,101130.36
2018-07-22T12:10:13.597Z,101129.51
2018-07-22T12:12:41.994Z,101132.67
2018-07-22T12:15:10.368Z,101132.84
2018-07-22T12:17:38.825Z,101133.81
2018-07-22T12:20:07.202Z,101129.79
2018-07-22T12:22:35.587Z,101127.97
2018-07-22T12:25:03.987Z,101129.51
2018-07-22T12:27:32.371Z,101124.31
2018-07-22T12:30:00.799Z,101124.44
2018-07-22T12:32:29.209Z,101124.52
2018-07-22T12:34:57.605Z,101119.56
2018-07-22T12:37:25.995Z,101118.67
2018-07-22T12:39:54.477Z,101115.78
2018-07-22T12:42:22.872Z,101122.60
2018-07-22T12:44:51.283Z,101120.01
2018-07-22T12:47:19.669Z,101118.47
2018-07-22T12:49:48.074Z,101119.25
2018-07-22T12:52:16.466Z,101112.10
2018-07-22T12:54:44.875Z,101108.09
2018-07-22T12:57:13.259Z,101103.02
2018-07-22T12:59:41.670Z,101101.11
2018-07-22T13:02:10.124Z,101098.72
2018-07-22T13:04:38.531Z,101099.28
2018-07-22T13:07:07.187Z,101098.23
2018-07-22T13:09:35.595Z,101098.59
2018-07-22T13:12:03.999Z,101094.86
2018-07-22T13:14:32.399Z,101083.97
2018-07-22T13:17:00.791Z,101086.33
2018-07-22T13:19:29.210Z,101083.97
2018-07-22T13:21:57.594Z,101082.42
2018-07-22T13:24:25.989Z,101074.86
2018-07-22T13:26:54.357Z,101084.50
2018-07-22T13:29:22.763Z,101082.48
2018-07-22T13:31:51.277Z,101080.14
2018-07-22T13:34:19.682Z,101074.78
2018-07-22T13:36:48.054Z,101084.37
2018-07-22T13:39:16.459Z,101091.45
2018-07-22T13:41:44.848Z,101093.98
2018-07-22T13:44:13.252Z,101090.53
2018-07-22T13:46:41.627Z,101084.88
2018-07-22T13:49:10.044Z,101083.97
2018-07-22T13:51:38.462Z,101074.57
2018-07-22T13:54:06.863Z,101065.16
2018-07-22T13:56:35.250Z,101070.71
2018-07-22T13:59:03.682Z,101070.59
2018-07-22T14:01:32.058Z,101072.72
2018-07-22T14:04:00.623Z,101076.89
2018-07-22T14:06:29.016Z,101071.84
2018-07-22T14:08:57.417Z,101072.73
2018-07-22T14:11:25.811Z,101077.27
2018-07-22T14:13:54.467Z,101072.22
2018-07-22T14:16:22.845Z,101073.56
2018-07-22T14:18:51.284Z,101074.70
2018-07-22T14:21:19.782Z,101077.09
2018-07-22T14:23:48.175Z,101081.80
2018-07-22T14:26:16.569Z,101081.40
2018-07-22T14:28:44.941Z,101080.95
2018-07-22T14:31:13.341Z,101080.55
2018-07-22T14:33:41.757Z,101083.14
2018-07-22T14:36:10.193Z,101081.23
2018-07-22T14:38:38.583Z,101083.79
2018-07-22T14:41:07.115Z,101083.02
2018-07-22T14:43:35.407Z,101086.58
2018-07-22T14:46:03.831Z,101084.77
2018-07-22T14:48:32.211Z,101080.45
2018-07-22T14:51:00.609Z,101082.38
2018-07-22T14:53:29.262Z,101076.81
2018-07-22T14:55:57.684Z,101070.81
2018-07-22T14:58:26.059Z,101064.31
2018-07-22T15:00:54.492Z,101061.23
2018-07-22T15:03:22.889Z,101060.02
2018-07-22T15:05:51.306Z,101064.59
2018-07-22T15:08:19.686Z,101060.06
2018-07-22T15:10:48.164Z,101063.02
2018-07-22T15:13:16.541Z,101071.73
2018-07-22T15:15:45.562Z,101072.87
2018-07-22T15:18:13.989Z,101078.61
2018-07-22T15:20:42.397Z,101079.45
2018-07-22T15:23:11.899Z,101071.42
2018-07-22T15:25:40.319Z,101080.60
2018-07-22T15:28:08.694Z,101082.21
2018-07-22T15:30:37.089Z,101088.88
2018-07-22T15:33:05.463Z,101089.68
2018-07-22T15:35:33.871Z,101090.06
2018-07-22T15:38:02.246Z,101090.44
2018-07-22T15:40:30.630Z,101089.85
2018-07-22T15:42:59.021Z,101088.00
2018-07-22T15:45:27.418Z,101092.36
2018-07-22T15:47:55.796Z,101096.66
2018-07-22T15:50:24.196Z,101090.72
2018-07-22T15:52:52.570Z,101092.21
2018-07-22T15:55:21.174Z,101097.66
2018-07-22T15:57:49.476Z,101094.59
2018-07-22T16:00:17.884Z,101091.54
2018-07-22T16:02:46.263Z,101093.73
2018-07-22T16:05:14.663Z,101093.25
2018-07-22T16:07:43.478Z,101096.70
2018-07-22T16:10:11.874Z,101092.50
2018-07-22T16:12:40.261Z,101086.12
2018-07-22T16:15:08.685Z,101092.80
2018-07-22T16:17:37.089Z,101084.78
2018-07-22T16:20:05.495Z,101067.71
2018-07-22T16:22:33.884Z,101070.23
2018-07-22T16:25:02.306Z,101066.22
2018-07-22T16:27:30.706Z,101072.84
2018-07-22T16:29:59.191Z,101067.33
2018-07-22T16:32:27.594Z,101065.88
2018-07-22T16:34:56.006Z,101067.25
2018-07-22T16:37:24.411Z,101069.59
2018-07-22T16:39:52.817Z,101066.78
2018-07-22T16:42:21.218Z,101069.77
2018-07-22T16:44:49.627Z,101064.16
2018-07-22T16:47:18.031Z,101062.98
2018-07-22T16:49:46.420Z,101058.44
2018-07-22T16:52:14.819Z,101063.20
2018-07-22T16:54:43.193Z,101063.19
2018-07-22T16:57:11.589Z,101069.06
2018-07-22T16:59:39.972Z,101069.36
2018-07-22T17:02:08.366Z,101072.17
2018-07-22T17:04:36.775Z,101072.89
2018-07-22T17:07:05.182Z,101078.25
2018-07-22T17:09:33.561Z,101070.05
2018-07-22T17:12:01.974Z,101075.69
2018-07-22T17:14:30.358Z,101079.94
2018-07-22T17:16:58.763Z,101075.91
2018-07-22T17:19:27.162Z,101080.80
2018-07-22T17:21:55.571Z,101078.55
2018-07-22T17:24:23.966Z,101080.39
2018-07-22T17:26:52.388Z,101078.30
2018-07-22T17:29:20.839Z,101075.73
2018-07-22T17:31:49.320Z,101077.15
2018-07-22T17:34:17.711Z,101079.34
2018-07-22T17:36:46.163Z,101080.79
2018-07-22T17:39:14.557Z,101081.27
2018-07-22T17:41:42.961Z,101078.98
2018-07-22T17:44:11.338Z,101080.50
2018-07-22T17:46:39.764Z,101089.12
2018-07-22T17:49:08.147Z,101081.59
2018-07-22T17:51:36.541Z,101082.00
2018-07-22T17:54:04.937Z,101083.09
2018-07-22T17:56:33.357Z,101087.61
2018-07-22T17:59:01.744Z,101084.59
2018-07-22T18:01:30.150Z,101090.33
2018-07-22T18:03:58.526Z,101094.58
2018-07-22T18:06:26.926Z,101091.61
2018-07-22T18:08:55.319Z,101094.50
2018-07-22T18:11:23.731Z,101098.80
2018-07-22T18:13:52.119Z,101101.78
2018-07-22T18:16:20.543Z,101104.17
2018-07-22T18:18:48.972Z,101105.32
2018-07-22T18:21:17.454Z,101109.41
2018-07-22T18:23:45.841Z,101111.02
2018-07-22T18:26:14.203Z,101112.16
2018-07-22T18:28:42.653Z,101108.01
2018-07-22T18:31:10.999Z,101113.44
2018-07-22T18:33:39.411Z,101110.48
2018-07-22T18:36:07.937Z,101111.86
2018-07-22T18:38:36.330Z,101115.91
2018-07-22T18:41:04.707Z,101119.59
2018-07-22T18:43:33.115Z,101122.80
2018-07-22T18:46:01.540Z,101126.70
2018-07-22T18:48:30.098Z,101128.48
2018-07-22T18:50:58.413Z,101130.16
2018-07-22T18:53:26.775Z,101136.70
2018-07-22T18:55:55.150Z,101134.88
2018-07-22T18:58:23.554Z,101136.97
2018-07-22T19:00:51.925Z,101140.84
2018-07-22T19:03:20.407Z,101141.68
2018-07-22T19:05:48.786Z,101141.56
2018-07-22T19:08:17.174Z,101144.05
2018-07-22T19:10:45.547Z,101147.54
2018-07-22T19:13:14.071Z,101150.91
2018-07-22T19:15:42.389Z,101153.11
2018-07-22T19:18:10.817Z,101162.63
2018-07-22T19:20:39.199Z,101167.04
2018-07-22T19:23:07.631Z,101173.14
2018-07-22T19:25:36.017Z,101172.61
2018-07-22T19:28:04.415Z,101180.92
2018-07-22T19:30:32.833Z,101186.52
2018-07-22T19:33:01.229Z,101190.83
2018-07-22T19:35:29.684Z,101197.68
2018-07-22T19:37:58.123Z,101197.95
2018-07-22T19:40:26.573Z,101204.31
2018-07-22T19:42:54.984Z,101199.78
2018-07-22T19:45:23.366Z,101203.61
2018-07-22T19:47:51.830Z,101202.07
2018-07-22T19:50:20.214Z,101200.58
2018-07-22T19:52:48.609Z,101204.02
2018-07-22T19:55:16.983Z,101206.50
2018-07-22T19:57:45.402Z,101216.96
2018-07-22T20:00:14.078Z,101214.70
2018-07-22T20:02:42.788Z,101215.55
2018-07-22T20:05:11.162Z,101219.00
2018-07-22T20:07:39.645Z,101217.50
2018-07-22T20:10:08.038Z,101218.20
2018-07-22T20:12:36.479Z,101218.48
2018-07-22T20:15:05.212Z,101221.42
2018-07-22T20:17:33.675Z,101221.74
2018-07-22T20:20:02.066Z,101220.19
2018-07-22T20:22:30.454Z,101219.14
2018-07-22T20:24:58.849Z,101216.29
2018-07-22T20:27:27.230Z,101219.98
2018-07-22T20:29:55.638Z,101228.17
2018-07-22T20:32:24.019Z,101225.35
2018-07-22T20:34:52.412Z,101221.20
2018-07-22T20:37:20.791Z,101224.08
2018-07-22T20:39:49.190Z,101228.20
2018-07-22T20:42:17.578Z,101231.03
2018-07-22T20:44:45.977Z,101227.63
2018-07-22T20:47:14.425Z,101228.13
2018-07-22T20:49:42.770Z,101228.70
2018-07-22T20:52:11.148Z,101230.14
2018-07-22T20:54:39.544Z,101232.89
2018-07-22T20:57:07.940Z,101230.85
2018-07-22T20:59:36.346Z,101234.11
2018-07-22T21:02:04.754Z,101233.81
2018-07-22T21:04:33.278Z,101236.17
2018-07-22T21:07:01.655Z,101232.73
2018-07-22T21:09:30.061Z,101235.02
2018-07-22T21:13:07.966Z,101238.62
2018-07-22T21:15:36.559Z,101241.88
2018-07-22T21:18:04.975Z,101242.47
2018-07-22T21:20:33.386Z,101243.40
2018-07-22T21:23:01.758Z,101243.92
2018-07-22T21:25:30.153Z,101238.73
2018-07-22T21:27:58.534Z,101244.59
2018-07-22T21:30:26.948Z,101246.44
2018-07-22T21:32:55.321Z,101245.70
2018-07-22T21:35:23.730Z,101247.63
2018-07-22T21:37:52.114Z,101248.21
2018-07-22T21:40:20.575Z,101250.92
2018-07-22T21:42:48.932Z,101251.91
2018-07-22T21:45:17.321Z,101257.75
2018-07-22T21:47:45.720Z,101255.23
2018-07-22T21:50:14.117Z,101250.98
2018-07-22T21:52:42.602Z,101258.95
2018-07-22T21:55:11.027Z,101245.85
2018-07-22T21:57:39.410Z,101253.41
2018-07-22T22:00:22.506Z,101254.43
2018-07-22T22:02:50.928Z,101252.77
2018-07-22T22:05:19.334Z,101254.17
2018-07-22T22:07:47.715Z,101261.28
2018-07-22T22:10:16.118Z,101267.06
2018-07-22T22:12:44.499Z,101264.50
2018-07-22T22:15:26.302Z,101261.89
2018-07-22T22:17:56.091Z,101268.13
2018-07-22T22:20:24.495Z,101266.48
2018-07-22T22:22:52.873Z,101268.33
2018-07-22T22:25:21.288Z,101265.77
2018-07-22T22:27:49.670Z,101264.56
2018-07-22T22:30:18.619Z,101269.09
2018-07-22T22:32:47.490Z,101273.61
2018-07-22T22:35:15.890Z,101268.86
2018-07-22T22:37:44.861Z,101263.63
2018-07-22T22:40:14.192Z,101274.73
2018-07-22T22:42:43.882Z,101276.14
2018-07-22T22:45:12.478Z,101282.83
2018-07-22T22:47:40.862Z,101275.47
2018-07-22T22:50:09.292Z,101272.47
2018-07-22T22:52:37.906Z,101275.22
2018-07-22T22:55:06.410Z,101275.75
2018-07-22T22:57:34.823Z,101272.76
2018-07-22T23:00:03.251Z,101287.36
2018-07-22T23:02:35.289Z,101285.28
2018-07-22T23:05:04.440Z,101284.47
2018-07-22T23:07:32.865Z,101286.32
2018-07-22T23:10:01.603Z,101280.68
2018-07-22T23:12:29.998Z,101278.59
2018-07-22T23:14:58.418Z,101282.61
2018-07-22T23:17:26.834Z,101285.75
2018-07-22T23:19:55.283Z,101278.38
2018-07-22T23:22:25.469Z,101278.09
2018-07-22T23:24:53.861Z,101275.13
2018-07-22T23:27:22.236Z,101273.42
2018-07-22T23:29:50.709Z,101267.37
2018-07-22T23:32:19.081Z,101269.69
2018-07-22T23:34:47.483Z,101273.28
2018-07-22T23:37:15.862Z,101272.91
2018-07-22T23:39:44.233Z,101276.92
2018-07-22T23:42:12.663Z,101278.26
2018-07-22T23:44:41.034Z,101276.09
2018-07-22T23:47:09.435Z,101274.84
2018-07-22T23:49:37.814Z,101275.77
2018-07-22T23:52:06.219Z,101274.52
2018-07-22T23:54:34.598Z,101278.95
2018-07-22T23:57:02.997Z,101282.52
2018-07-22T23:59:31.374Z,101283.91
